createdAt,value
2023-01-05T00:05:03.612Z,5.70
2023-01-05T00:10:25.457Z,6.22
2023-01-05T00:15:47.354Z,5.93
2023-01-05T00:21:14.338Z,6.88
2023-01-05T00:26:36.237Z,6.07
2023-01-05T00:31:58.139Z,6.32
2023-01-05T00:37:20.364Z,6.45
2023-01-05T00:42:42.548Z,6.97
2023-01-05T00:48:04.723Z,5.15
2023-01-05T00:53:26.594Z,5.78
2023-01-05T00:58:48.435Z,4.82
2023-01-05T01:04:10.319Z,6.55
2023-01-05T01:09:33.029Z,4.70
2023-01-05T01:14:54.848Z,5.80
2023-01-05T01:20:17.531Z,4.93
2023-01-05T01:25:39.383Z,5.30
2023-01-05T01:31:01.814Z,5.95
2023-01-05T01:36:23.639Z,5.35
2023-01-05T01:41:45.639Z,6.32
2023-01-05T01:47:11.870Z,5.00
2023-01-05T01:52:34.870Z,4.18
2023-01-05T01:57:57.956Z,3.80
2023-01-05T02:03:19.845Z,6.03
2023-01-05T02:08:42.503Z,3.60
2023-01-05T02:14:37.960Z,4.15
2023-01-05T02:20:18.020Z,4.20
2023-01-05T02:25:42.591Z,6.07
2023-01-05T02:31:23.561Z,2.95
2023-01-05T02:36:51.558Z,4.38
2023-01-05T02:42:20.549Z,3.05
2023-01-05T02:47:45.291Z,4.38
2023-01-05T02:53:18.811Z,4.60
2023-01-05T02:58:48.667Z,3.40
2023-01-05T03:04:17.965Z,3.83
2023-01-05T03:09:42.277Z,3.42
2023-01-05T03:15:31.451Z,2.95
2023-01-05T03:20:55.164Z,2.78
2023-01-05T03:26:17.134Z,3.53
2023-01-05T03:31:38.923Z,3.63
2023-01-05T03:37:15.199Z,4.75
2023-01-05T03:42:38.175Z,2.25
2023-01-05T03:48:00.040Z,3.08
2023-01-05T03:53:21.925Z,3.63
2023-01-05T03:58:43.772Z,4.40
2023-01-05T04:04:05.687Z,2.15
2023-01-05T04:09:27.565Z,2.95
2023-01-05T04:14:49.387Z,4.13
2023-01-05T04:20:11.623Z,2.38
2023-01-05T04:25:33.472Z,2.42
2023-01-05T04:30:56.560Z,2.60
2023-01-05T04:36:18.405Z,3.05
2023-01-05T04:41:40.241Z,4.22
2023-01-05T04:47:02.063Z,2.25
2023-01-05T04:52:23.892Z,1.42
2023-01-05T04:57:45.727Z,1.58
2023-01-05T05:03:07.759Z,1.88
2023-01-05T05:08:29.778Z,1.58
2023-01-05T05:13:51.735Z,2.40
2023-01-05T05:19:13.691Z,2.33
2023-01-05T05:24:35.574Z,2.55
2023-01-05T05:29:57.388Z,3.10
2023-01-05T05:35:19.282Z,3.33
2023-01-05T05:40:41.165Z,2.00
2023-01-05T05:46:03.295Z,4.18
2023-01-05T05:51:26.001Z,2.83
2023-01-05T05:56:47.851Z,3.10
2023-01-05T06:02:09.792Z,2.28
2023-01-05T06:07:31.700Z,2.15
2023-01-05T06:12:54.702Z,1.92
2023-01-05T06:18:17.345Z,2.55
2023-01-05T06:23:39.160Z,1.40
2023-01-05T06:29:01.021Z,2.75
2023-01-05T06:34:22.847Z,2.53
2023-01-05T06:39:44.826Z,3.55
2023-01-05T06:45:08.417Z,3.13
2023-01-05T06:50:30.452Z,3.25
2023-01-05T06:55:52.272Z,2.88
2023-01-05T07:01:14.164Z,4.80
2023-01-05T07:06:36.375Z,5.15
2023-01-05T07:11:58.181Z,2.28
2023-01-05T07:17:20.209Z,5.57
2023-01-05T07:22:42.117Z,4.32
2023-01-05T07:28:04.103Z,7.05
2023-01-05T07:33:25.944Z,4.43
2023-01-05T07:38:47.773Z,4.43
2023-01-05T07:44:09.782Z,5.60
2023-01-05T07:49:31.613Z,5.60
2023-01-05T07:54:53.445Z,4.43
2023-01-05T08:00:15.634Z,4.30
2023-01-05T08:05:37.477Z,4.97
2023-01-05T08:10:59.428Z,3.83
2023-01-05T08:16:21.761Z,3.65
2023-01-05T08:21:43.693Z,5.63
2023-01-05T08:27:05.685Z,4.10
2023-01-05T08:32:27.649Z,5.32
2023-01-05T08:37:49.551Z,5.22
2023-01-05T08:43:11.386Z,5.20
2023-01-05T08:48:33.231Z,4.60
2023-01-05T08:53:55.936Z,4.25
2023-01-05T08:59:17.863Z,5.57
2023-01-05T09:04:39.799Z,6.78
2023-01-05T09:10:01.698Z,5.25
2023-01-05T09:15:23.579Z,4.93
2023-01-05T09:20:45.424Z,3.20
2023-01-05T09:26:08.999Z,4.63
2023-01-05T09:31:30.890Z,6.40
2023-01-05T09:36:52.737Z,9.20
2023-01-05T09:42:19.298Z,7.60
2023-01-05T09:53:07.865Z,7.95
2023-01-05T09:58:37.179Z,8.88
2023-01-05T10:04:04.603Z,6.03
2023-01-05T10:09:35.055Z,5.30
2023-01-05T10:15:13.739Z,8.35
2023-01-05T10:20:46.061Z,7.50
2023-01-05T10:26:20.969Z,3.80
2023-01-05T10:31:55.061Z,6.97
2023-01-05T10:37:16.839Z,10.95
2023-01-05T10:42:58.374Z,4.97
2023-01-05T10:48:28.807Z,7.68
2023-01-05T10:53:50.735Z,6.90
2023-01-05T10:59:13.460Z,4.90
2023-01-05T11:04:36.060Z,5.53
2023-01-05T11:09:58.163Z,7.68
2023-01-05T11:15:20.976Z,5.35
2023-01-05T11:21:14.500Z,5.70
2023-01-05T11:26:49.182Z,8.07
2023-01-05T11:32:13.396Z,5.68
2023-01-05T11:37:35.291Z,7.47
2023-01-05T11:42:59.317Z,8.98
2023-01-05T11:48:26.597Z,6.78
2023-01-05T11:53:48.467Z,7.28
2023-01-05T11:59:28.997Z,9.95
2023-01-05T12:05:37.156Z,6.38
2023-01-05T12:11:18.336Z,5.13
2023-01-05T12:16:47.573Z,5.85
2023-01-05T12:22:24.780Z,10.10
2023-01-05T12:27:49.259Z,6.60
2023-01-05T12:39:13.314Z,9.85
2023-01-05T12:45:19.686Z,7.10
2023-01-05T12:50:47.600Z,6.28
2023-01-05T12:56:18.903Z,6.22
2023-01-05T13:02:07.348Z,4.32
2023-01-05T13:07:52.583Z,7.32
2023-01-05T13:13:19.636Z,4.57
2023-01-05T13:19:02.213Z,6.80
2023-01-05T13:24:31.105Z,7.18
2023-01-05T13:29:54.791Z,7.03
2023-01-05T13:35:30.104Z,3.40
2023-01-05T13:41:04.094Z,5.85
2023-01-05T13:46:40.887Z,6.25
2023-01-05T13:52:21.929Z,5.75
2023-01-05T13:57:45.207Z,11.55
2023-01-05T14:03:09.928Z,8.98
2023-01-05T14:08:36.179Z,6.70
2023-01-05T14:14:00.852Z,8.82
2023-01-05T14:19:32.884Z,8.98
2023-01-05T14:24:55.986Z,5.35
2023-01-05T14:30:21.971Z,4.88
2023-01-05T14:35:44.729Z,8.03
2023-01-05T14:47:36.872Z,5.13
2023-01-05T14:53:00.096Z,6.40
2023-01-05T14:58:36.928Z,5.20
2023-01-05T15:04:14.806Z,8.73
2023-01-05T15:10:11.873Z,5.53
2023-01-05T15:21:56.068Z,5.70
2023-01-05T15:27:51.997Z,6.20
2023-01-05T15:33:39.880Z,6.43
2023-01-05T15:39:01.723Z,7.45
2023-01-05T15:44:26.112Z,8.57
2023-01-05T15:49:49.830Z,5.85
2023-01-05T15:55:17.390Z,7.05
2023-01-05T16:00:39.463Z,6.05
2023-01-05T16:06:08.865Z,8.38
2023-01-05T16:11:36.629Z,3.88
2023-01-05T16:17:05.370Z,4.53
2023-01-05T16:22:30.256Z,2.40
2023-01-05T16:27:55.909Z,3.33
2023-01-05T16:33:36.387Z,2.13
2023-01-05T16:39:22.503Z,4.45
2023-01-05T16:44:52.532Z,3.33
2023-01-05T16:50:17.365Z,4.75
2023-01-05T16:55:39.951Z,3.00
2023-01-05T17:01:13.952Z,2.50
2023-01-05T17:06:35.875Z,2.28
2023-01-05T17:11:58.257Z,3.08
2023-01-05T17:17:20.163Z,6.47
2023-01-05T17:22:42.227Z,3.08
2023-01-05T17:28:04.271Z,2.67
2023-01-05T17:33:26.260Z,4.35
2023-01-05T17:38:48.410Z,2.78
2023-01-05T17:44:10.797Z,2.78
2023-01-05T17:49:32.656Z,2.42
2023-01-05T17:54:54.520Z,3.55
2023-01-05T18:00:20.826Z,3.90
2023-01-05T18:05:44.565Z,3.15
2023-01-05T18:11:08.014Z,3.58
2023-01-05T18:21:52.653Z,2.75
2023-01-05T18:27:14.647Z,2.45
2023-01-05T18:32:37.056Z,3.35
2023-01-05T18:37:58.998Z,3.20
2023-01-05T18:43:20.805Z,4.30
2023-01-05T18:48:42.685Z,3.35
2023-01-05T18:54:05.320Z,2.97
2023-01-05T18:59:27.159Z,2.13
2023-01-05T19:04:49.272Z,2.75
2023-01-05T19:10:11.156Z,3.05
2023-01-05T19:15:34.952Z,3.42
2023-01-05T19:21:00.202Z,3.55
2023-01-05T19:26:23.374Z,3.17
2023-01-05T19:31:46.114Z,3.20
2023-01-05T19:37:08.047Z,3.05
2023-01-05T19:42:31.534Z,2.80
2023-01-05T19:47:53.399Z,4.13
2023-01-05T19:53:15.384Z,3.60
2023-01-05T19:58:38.560Z,3.70
2023-01-05T20:04:01.240Z,4.13
2023-01-05T20:09:23.250Z,3.08
2023-01-05T20:14:45.232Z,5.03
2023-01-05T20:20:07.648Z,3.72
2023-01-05T20:25:29.576Z,4.93
2023-01-05T20:30:51.454Z,3.90
2023-01-05T20:36:13.621Z,4.05
2023-01-05T20:41:38.979Z,3.80
2023-01-05T20:47:01.012Z,2.78
2023-01-05T20:52:22.970Z,2.97
2023-01-05T20:57:44.853Z,2.88
2023-01-05T21:03:06.831Z,2.45
2023-01-05T21:08:28.809Z,2.05
2023-01-05T21:13:50.679Z,2.47
2023-01-05T21:19:14.500Z,4.07
2023-01-05T21:24:36.741Z,1.77
2023-01-05T21:29:58.686Z,2.20
2023-01-05T21:35:20.660Z,2.95
2023-01-05T21:40:42.541Z,3.22
2023-01-05T21:46:09.843Z,2.80
2023-01-05T21:51:31.899Z,3.38
2023-01-05T21:56:54.329Z,3.05
2023-01-05T22:02:16.686Z,2.20
2023-01-05T22:07:38.587Z,3.53
2023-01-05T22:13:00.461Z,3.88
2023-01-05T22:18:24.348Z,2.55
2023-01-05T22:23:46.335Z,2.83
2023-01-05T22:29:08.552Z,2.75
2023-01-05T22:34:31.046Z,3.17
2023-01-05T22:39:52.981Z,3.17
2023-01-05T22:45:14.919Z,2.40
2023-01-05T22:50:36.776Z,2.65
2023-01-05T22:55:58.958Z,2.55
2023-01-05T23:01:33.078Z,2.97
2023-01-05T23:06:54.958Z,2.38
2023-01-05T23:12:16.887Z,4.25
2023-01-05T23:17:39.002Z,2.60
2023-01-05T23:23:00.893Z,2.78
2023-01-05T23:28:25.090Z,2.80
2023-01-05T23:33:48.249Z,3.05
2023-01-05T23:39:10.199Z,2.85
2023-01-05T23:44:32.055Z,3.50
2023-01-05T23:49:53.901Z,4.60
2023-01-05T23:55:15.813Z,3.38
